sensor_id;sensor_type;location;lat;lon;timestamp;P1;durP1;ratioP1;P2;durP2;ratioP2
62574;SDS011;70119;45.638;11.714;2023-12-07T00:00:08;15.93;;;12.05;;
62574;SDS011;70119;45.638;11.714;2023-12-07T00:02:34;13.27;;;10.40;;
62574;SDS011;70119;45.638;11.714;2023-12-07T00:05:00;15.30;;;10.82;;
62574;SDS011;70119;45.638;11.714;2023-12-07T00:07:26;16.27;;;11.23;;
62574;SDS011;70119;45.638;11.714;2023-12-07T00:09:52;15.80;;;11.80;;
62574;SDS011;70119;45.638;11.714;2023-12-07T00:12:18;15.70;;;12.00;;
62574;SDS011;70119;45.638;11.714;2023-12-07T00:14:43;17.02;;;12.23;;
62574;SDS011;70119;45.638;11.714;2023-12-07T00:17:10;15.98;;;12.40;;
62574;SDS011;70119;45.638;11.714;2023-12-07T00:19:36;15.80;;;11.73;;
62574;SDS011;70119;45.638;11.714;2023-12-07T00:22:01;18.42;;;13.65;;
62574;SDS011;70119;45.638;11.714;2023-12-07T00:24:27;16.25;;;12.10;;
62574;SDS011;70119;45.638;11.714;2023-12-07T00:26:53;16.63;;;12.82;;
62574;SDS011;70119;45.638;11.714;2023-12-07T00:29:19;16.48;;;12.20;;
62574;SDS011;70119;45.638;11.714;2023-12-07T00:31:45;17.30;;;12.65;;
62574;SDS011;70119;45.638;11.714;2023-12-07T00:34:11;18.45;;;12.70;;
62574;SDS011;70119;45.638;11.714;2023-12-07T00:36:37;16.77;;;13.05;;
62574;SDS011;70119;45.638;11.714;2023-12-07T00:39:06;17.63;;;12.85;;
62574;SDS011;70119;45.638;11.714;2023-12-07T00:41:32;15.68;;;12.25;;
62574;SDS011;70119;45.638;11.714;2023-12-07T00:43:58;17.83;;;13.35;;
62574;SDS011;70119;45.638;11.714;2023-12-07T00:46:23;16.85;;;12.75;;
62574;SDS011;70119;45.638;11.714;2023-12-07T00:48:49;19.40;;;13.43;;
62574;SDS011;70119;45.638;11.714;2023-12-07T00:51:15;16.25;;;12.93;;
62574;SDS011;70119;45.638;11.714;2023-12-07T00:53:41;16.90;;;13.45;;
62574;SDS011;70119;45.638;11.714;2023-12-07T00:56:07;15.43;;;12.27;;
62574;SDS011;70119;45.638;11.714;2023-12-07T00:58:33;17.20;;;12.77;;
62574;SDS011;70119;45.638;11.714;2023-12-07T01:00:59;16.63;;;12.30;;
62574;SDS011;70119;45.638;11.714;2023-12-07T01:03:25;16.90;;;12.13;;
62574;SDS011;70119;45.638;11.714;2023-12-07T01:05:51;17.38;;;12.95;;
62574;SDS011;70119;45.638;11.714;2023-12-07T01:08:18;18.65;;;14.23;;
62574;SDS011;70119;45.638;11.714;2023-12-07T01:10:43;16.75;;;12.50;;
62574;SDS011;70119;45.638;11.714;2023-12-07T01:13:09;17.50;;;12.38;;
62574;SDS011;70119;45.638;11.714;2023-12-07T01:15:35;13.82;;;11.25;;
62574;SDS011;70119;45.638;11.714;2023-12-07T01:18:01;15.50;;;11.30;;
62574;SDS011;70119;45.638;11.714;2023-12-07T01:20:27;16.88;;;12.60;;
62574;SDS011;70119;45.638;11.714;2023-12-07T01:22:53;15.00;;;12.00;;
62574;SDS011;70119;45.638;11.714;2023-12-07T01:25:18;15.48;;;11.10;;
62574;SDS011;70119;45.638;11.714;2023-12-07T01:27:46;14.95;;;11.18;;
62574;SDS011;70119;45.638;11.714;2023-12-07T01:30:13;16.40;;;12.05;;
62574;SDS011;70119;45.638;11.714;2023-12-07T01:32:39;15.27;;;11.70;;
62574;SDS011;70119;45.638;11.714;2023-12-07T01:35:05;15.65;;;11.85;;
62574;SDS011;70119;45.638;11.714;2023-12-07T01:37:31;14.70;;;11.68;;
62574;SDS011;70119;45.638;11.714;2023-12-07T01:39:57;16.42;;;12.05;;
62574;SDS011;70119;45.638;11.714;2023-12-07T01:42:23;15.68;;;12.35;;
62574;SDS011;70119;45.638;11.714;2023-12-07T01:44:49;14.50;;;11.18;;
62574;SDS011;70119;45.638;11.714;2023-12-07T01:47:15;16.13;;;12.50;;
62574;SDS011;70119;45.638;11.714;2023-12-07T01:49:41;18.17;;;13.90;;
62574;SDS011;70119;45.638;11.714;2023-12-07T01:52:08;16.90;;;13.57;;
62574;SDS011;70119;45.638;11.714;2023-12-07T01:54:35;15.73;;;12.02;;
62574;SDS011;70119;45.638;11.714;2023-12-07T01:57:02;15.85;;;12.23;;
62574;SDS011;70119;45.638;11.714;2023-12-07T01:59:28;17.25;;;12.35;;
62574;SDS011;70119;45.638;11.714;2023-12-07T02:01:54;15.70;;;11.15;;
62574;SDS011;70119;45.638;11.714;2023-12-07T02:04:20;15.55;;;11.70;;
62574;SDS011;70119;45.638;11.714;2023-12-07T02:06:46;16.10;;;12.13;;
62574;SDS011;70119;45.638;11.714;2023-12-07T02:09:12;15.75;;;12.00;;
62574;SDS011;70119;45.638;11.714;2023-12-07T02:11:38;16.23;;;12.93;;
62574;SDS011;70119;45.638;11.714;2023-12-07T02:14:04;15.65;;;12.27;;
62574;SDS011;70119;45.638;11.714;2023-12-07T02:16:31;14.63;;;11.30;;
62574;SDS011;70119;45.638;11.714;2023-12-07T02:22:25;14.73;;;11.32;;
62574;SDS011;70119;45.638;11.714;2023-12-07T02:27:34;14.38;;;11.52;;
62574;SDS011;70119;45.638;11.714;2023-12-07T02:30:06;17.20;;;12.50;;
62574;SDS011;70119;45.638;11.714;2023-12-07T02:32:33;15.70;;;12.15;;
62574;SDS011;70119;45.638;11.714;2023-12-07T02:34:59;17.02;;;12.68;;
62574;SDS011;70119;45.638;11.714;2023-12-07T02:37:27;17.10;;;12.90;;
62574;SDS011;70119;45.638;11.714;2023-12-07T02:39:57;16.58;;;12.50;;
62574;SDS011;70119;45.638;11.714;2023-12-07T02:42:24;17.42;;;13.30;;
62574;SDS011;70119;45.638;11.714;2023-12-07T02:44:52;17.08;;;13.38;;
62574;SDS011;70119;45.638;11.714;2023-12-07T02:47:19;17.15;;;12.32;;
62574;SDS011;70119;45.638;11.714;2023-12-07T02:49:44;15.93;;;12.27;;
62574;SDS011;70119;45.638;11.714;2023-12-07T02:52:10;16.60;;;13.27;;
62574;SDS011;70119;45.638;11.714;2023-12-07T02:54:36;16.08;;;12.30;;
62574;SDS011;70119;45.638;11.714;2023-12-07T02:57:02;15.90;;;12.93;;
62574;SDS011;70119;45.638;11.714;2023-12-07T02:59:28;16.42;;;13.10;;
62574;SDS011;70119;45.638;11.714;2023-12-07T03:01:54;15.65;;;12.63;;
62574;SDS011;70119;45.638;11.714;2023-12-07T03:04:20;15.65;;;12.15;;
62574;SDS011;70119;45.638;11.714;2023-12-07T03:06:46;16.15;;;12.32;;
62574;SDS011;70119;45.638;11.714;2023-12-07T03:09:12;15.70;;;11.88;;
62574;SDS011;70119;45.638;11.714;2023-12-07T03:11:37;16.83;;;12.38;;
62574;SDS011;70119;45.638;11.714;2023-12-07T03:14:03;18.08;;;13.48;;
62574;SDS011;70119;45.638;11.714;2023-12-07T03:16:30;15.77;;;12.40;;
62574;SDS011;70119;45.638;11.714;2023-12-07T03:18:56;16.95;;;12.30;;
62574;SDS011;70119;45.638;11.714;2023-12-07T03:21:21;14.23;;;11.38;;
62574;SDS011;70119;45.638;11.714;2023-12-07T03:23:47;16.48;;;12.20;;
62574;SDS011;70119;45.638;11.714;2023-12-07T03:26:14;14.60;;;11.55;;
62574;SDS011;70119;45.638;11.714;2023-12-07T03:28:40;15.18;;;12.00;;
62574;SDS011;70119;45.638;11.714;2023-12-07T03:31:06;15.07;;;11.90;;
62574;SDS011;70119;45.638;11.714;2023-12-07T03:33:32;16.25;;;12.73;;
62574;SDS011;70119;45.638;11.714;2023-12-07T03:35:58;14.88;;;12.18;;
62574;SDS011;70119;45.638;11.714;2023-12-07T03:38:24;17.13;;;12.10;;
62574;SDS011;70119;45.638;11.714;2023-12-07T03:40:49;15.38;;;11.93;;
62574;SDS011;70119;45.638;11.714;2023-12-07T03:43:17;15.57;;;11.77;;
62574;SDS011;70119;45.638;11.714;2023-12-07T03:45:44;15.55;;;11.68;;
62574;SDS011;70119;45.638;11.714;2023-12-07T03:48:10;15.43;;;11.85;;
62574;SDS011;70119;45.638;11.714;2023-12-07T03:50:35;14.05;;;10.88;;
62574;SDS011;70119;45.638;11.714;2023-12-07T03:53:01;15.38;;;11.48;;
62574;SDS011;70119;45.638;11.714;2023-12-07T03:55:27;15.05;;;11.38;;
62574;SDS011;70119;45.638;11.714;2023-12-07T03:57:53;14.02;;;10.75;;
62574;SDS011;70119;45.638;11.714;2023-12-07T04:00:19;13.13;;;10.40;;
62574;SDS011;70119;45.638;11.714;2023-12-07T04:02:45;14.95;;;12.05;;
62574;SDS011;70119;45.638;11.714;2023-12-07T04:05:11;15.65;;;11.65;;
62574;SDS011;70119;45.638;11.714;2023-12-07T04:07:37;14.40;;;10.68;;
62574;SDS011;70119;45.638;11.714;2023-12-07T04:10:03;14.02;;;10.48;;
62574;SDS011;70119;45.638;11.714;2023-12-07T04:12:31;15.02;;;11.70;;
62574;SDS011;70119;45.638;11.714;2023-12-07T04:14:57;15.48;;;12.27;;
62574;SDS011;70119;45.638;11.714;2023-12-07T04:17:23;15.85;;;12.07;;
62574;SDS011;70119;45.638;11.714;2023-12-07T04:19:49;14.13;;;10.82;;
62574;SDS011;70119;45.638;11.714;2023-12-07T04:22:15;15.57;;;11.63;;
62574;SDS011;70119;45.638;11.714;2023-12-07T04:24:41;16.27;;;11.60;;
62574;SDS011;70119;45.638;11.714;2023-12-07T04:27:06;15.20;;;11.45;;
62574;SDS011;70119;45.638;11.714;2023-12-07T04:29:32;13.85;;;11.45;;
62574;SDS011;70119;45.638;11.714;2023-12-07T04:31:58;15.27;;;12.35;;
62574;SDS011;70119;45.638;11.714;2023-12-07T04:34:25;17.17;;;13.07;;
62574;SDS011;70119;45.638;11.714;2023-12-07T04:36:53;14.65;;;11.55;;
62574;SDS011;70119;45.638;11.714;2023-12-07T04:39:20;16.13;;;12.65;;
62574;SDS011;70119;45.638;11.714;2023-12-07T04:41:47;15.30;;;11.98;;
62574;SDS011;70119;45.638;11.714;2023-12-07T04:44:13;15.15;;;11.80;;
62574;SDS011;70119;45.638;11.714;2023-12-07T04:46:39;18.23;;;13.48;;
62574;SDS011;70119;45.638;11.714;2023-12-07T04:49:04;14.30;;;11.35;;
62574;SDS011;70119;45.638;11.714;2023-12-07T04:51:30;15.35;;;11.70;;
62574;SDS011;70119;45.638;11.714;2023-12-07T04:53:57;15.63;;;11.65;;
62574;SDS011;70119;45.638;11.714;2023-12-07T04:56:25;14.05;;;11.00;;
62574;SDS011;70119;45.638;11.714;2023-12-07T04:58:51;14.20;;;11.20;;
62574;SDS011;70119;45.638;11.714;2023-12-07T05:01:17;14.20;;;11.32;;
62574;SDS011;70119;45.638;11.714;2023-12-07T05:03:46;14.02;;;11.32;;
62574;SDS011;70119;45.638;11.714;2023-12-07T05:06:12;13.88;;;10.60;;
62574;SDS011;70119;45.638;11.714;2023-12-07T05:08:39;15.52;;;11.85;;
62574;SDS011;70119;45.638;11.714;2023-12-07T05:11:05;14.57;;;10.93;;
62574;SDS011;70119;45.638;11.714;2023-12-07T05:13:32;13.60;;;10.60;;
62574;SDS011;70119;45.638;11.714;2023-12-07T05:15:59;14.52;;;11.27;;
62574;SDS011;70119;45.638;11.714;2023-12-07T05:18:25;14.20;;;10.90;;
62574;SDS011;70119;45.638;11.714;2023-12-07T05:20:56;13.23;;;11.00;;
62574;SDS011;70119;45.638;11.714;2023-12-07T05:23:22;14.43;;;10.70;;
62574;SDS011;70119;45.638;11.714;2023-12-07T05:25:47;13.88;;;10.73;;
62574;SDS011;70119;45.638;11.714;2023-12-07T05:28:13;13.45;;;10.23;;
62574;SDS011;70119;45.638;11.714;2023-12-07T05:30:39;14.82;;;11.48;;
62574;SDS011;70119;45.638;11.714;2023-12-07T05:33:06;14.88;;;11.70;;
62574;SDS011;70119;45.638;11.714;2023-12-07T05:35:33;14.02;;;10.77;;
62574;SDS011;70119;45.638;11.714;2023-12-07T05:37:59;14.75;;;11.68;;
62574;SDS011;70119;45.638;11.714;2023-12-07T05:40:25;14.55;;;11.43;;
62574;SDS011;70119;45.638;11.714;2023-12-07T05:42:51;15.98;;;12.05;;
62574;SDS011;70119;45.638;11.714;2023-12-07T05:45:17;16.48;;;11.82;;
62574;SDS011;70119;45.638;11.714;2023-12-07T05:47:43;14.93;;;11.20;;
62574;SDS011;70119;45.638;11.714;2023-12-07T05:50:09;14.20;;;10.80;;
62574;SDS011;70119;45.638;11.714;2023-12-07T05:52:34;13.30;;;10.55;;
62574;SDS011;70119;45.638;11.714;2023-12-07T05:55:00;13.02;;;10.40;;
62574;SDS011;70119;45.638;11.714;2023-12-07T05:57:26;14.18;;;10.80;;
62574;SDS011;70119;45.638;11.714;2023-12-07T05:59:52;13.98;;;10.60;;
62574;SDS011;70119;45.638;11.714;2023-12-07T06:02:18;15.60;;;11.35;;
62574;SDS011;70119;45.638;11.714;2023-12-07T06:04:44;15.23;;;10.77;;
62574;SDS011;70119;45.638;11.714;2023-12-07T06:07:10;14.57;;;10.90;;
62574;SDS011;70119;45.638;11.714;2023-12-07T06:09:37;16.75;;;11.45;;
62574;SDS011;70119;45.638;11.714;2023-12-07T06:12:03;15.65;;;11.50;;
62574;SDS011;70119;45.638;11.714;2023-12-07T06:14:29;14.68;;;11.52;;
62574;SDS011;70119;45.638;11.714;2023-12-07T06:16:55;14.10;;;11.15;;
62574;SDS011;70119;45.638;11.714;2023-12-07T06:19:21;13.95;;;10.82;;
62574;SDS011;70119;45.638;11.714;2023-12-07T06:21:47;13.38;;;10.43;;
62574;SDS011;70119;45.638;11.714;2023-12-07T06:24:16;12.85;;;10.27;;
62574;SDS011;70119;45.638;11.714;2023-12-07T06:26:42;14.27;;;10.95;;
62574;SDS011;70119;45.638;11.714;2023-12-07T06:29:08;14.15;;;10.70;;
62574;SDS011;70119;45.638;11.714;2023-12-07T06:31:34;14.68;;;11.00;;
62574;SDS011;70119;45.638;11.714;2023-12-07T06:34:00;13.27;;;10.48;;
62574;SDS011;70119;45.638;11.714;2023-12-07T06:36:26;14.35;;;10.52;;
62574;SDS011;70119;45.638;11.714;2023-12-07T06:38:52;14.30;;;10.65;;
62574;SDS011;70119;45.638;11.714;2023-12-07T06:41:20;14.35;;;10.93;;
62574;SDS011;70119;45.638;11.714;2023-12-07T06:43:45;12.88;;;10.13;;
62574;SDS011;70119;45.638;11.714;2023-12-07T06:46:12;12.30;;;9.65;;
62574;SDS011;70119;45.638;11.714;2023-12-07T06:48:39;15.52;;;10.43;;
62574;SDS011;70119;45.638;11.714;2023-12-07T06:51:05;13.85;;;10.10;;
62574;SDS011;70119;45.638;11.714;2023-12-07T06:53:31;14.40;;;10.35;;
62574;SDS011;70119;45.638;11.714;2023-12-07T06:55:58;13.60;;;10.00;;
62574;SDS011;70119;45.638;11.714;2023-12-07T06:58:24;16.25;;;11.32;;
62574;SDS011;70119;45.638;11.714;2023-12-07T07:00:50;13.05;;;9.82;;
62574;SDS011;70119;45.638;11.714;2023-12-07T07:03:23;15.32;;;10.40;;
62574;SDS011;70119;45.638;11.714;2023-12-07T07:06:05;15.45;;;10.23;;
62574;SDS011;70119;45.638;11.714;2023-12-07T07:08:34;13.07;;;9.87;;
62574;SDS011;70119;45.638;11.714;2023-12-07T07:11:09;14.40;;;10.00;;
62574;SDS011;70119;45.638;11.714;2023-12-07T07:13:44;18.17;;;11.40;;
62574;SDS011;70119;45.638;11.714;2023-12-07T07:16:24;14.35;;;10.65;;
62574;SDS011;70119;45.638;11.714;2023-12-07T07:18:58;14.63;;;10.02;;
62574;SDS011;70119;45.638;11.714;2023-12-07T07:21:32;14.68;;;10.20;;
62574;SDS011;70119;45.638;11.714;2023-12-07T07:24:18;14.07;;;10.02;;
62574;SDS011;70119;45.638;11.714;2023-12-07T07:26:52;14.52;;;9.32;;
62574;SDS011;70119;45.638;11.714;2023-12-07T07:29:18;14.05;;;9.82;;
62574;SDS011;70119;45.638;11.714;2023-12-07T07:31:44;12.32;;;9.35;;
62574;SDS011;70119;45.638;11.714;2023-12-07T07:34:10;14.13;;;9.85;;
62574;SDS011;70119;45.638;11.714;2023-12-07T07:36:36;14.65;;;9.57;;
62574;SDS011;70119;45.638;11.714;2023-12-07T07:39:04;15.30;;;9.45;;
62574;SDS011;70119;45.638;11.714;2023-12-07T07:41:32;13.55;;;9.70;;
62574;SDS011;70119;45.638;11.714;2023-12-07T07:43:59;12.00;;;8.70;;
62574;SDS011;70119;45.638;11.714;2023-12-07T07:46:25;11.60;;;8.80;;
62574;SDS011;70119;45.638;11.714;2023-12-07T07:48:51;13.18;;;9.52;;
62574;SDS011;70119;45.638;11.714;2023-12-07T07:51:17;11.75;;;9.15;;
62574;SDS011;70119;45.638;11.714;2023-12-07T07:53:44;13.52;;;9.55;;
62574;SDS011;70119;45.638;11.714;2023-12-07T07:56:13;15.27;;;9.70;;
62574;SDS011;70119;45.638;11.714;2023-12-07T07:58:42;13.70;;;9.50;;
62574;SDS011;70119;45.638;11.714;2023-12-07T08:01:08;13.18;;;9.13;;
62574;SDS011;70119;45.638;11.714;2023-12-07T08:03:34;13.48;;;9.63;;
62574;SDS011;70119;45.638;11.714;2023-12-07T08:06:00;15.32;;;11.15;;
62574;SDS011;70119;45.638;11.714;2023-12-07T08:08:26;17.05;;;12.00;;
62574;SDS011;70119;45.638;11.714;2023-12-07T08:10:52;15.23;;;10.65;;
62574;SDS011;70119;45.638;11.714;2023-12-07T08:13:18;13.98;;;9.85;;
62574;SDS011;70119;45.638;11.714;2023-12-07T08:15:47;13.60;;;10.48;;
62574;SDS011;70119;45.638;11.714;2023-12-07T08:18:15;14.80;;;10.93;;
62574;SDS011;70119;45.638;11.714;2023-12-07T08:20:41;14.35;;;9.88;;
62574;SDS011;70119;45.638;11.714;2023-12-07T08:23:07;14.88;;;10.70;;
62574;SDS011;70119;45.638;11.714;2023-12-07T08:25:33;15.27;;;10.43;;
62574;SDS011;70119;45.638;11.714;2023-12-07T08:27:59;12.40;;;9.82;;
62574;SDS011;70119;45.638;11.714;2023-12-07T08:30:25;13.18;;;9.75;;
62574;SDS011;70119;45.638;11.714;2023-12-07T08:32:51;16.30;;;11.88;;
62574;SDS011;70119;45.638;11.714;2023-12-07T08:35:16;17.10;;;11.45;;
62574;SDS011;70119;45.638;11.714;2023-12-07T08:37:43;16.77;;;11.68;;
62574;SDS011;70119;45.638;11.714;2023-12-07T08:40:11;22.63;;;19.65;;
62574;SDS011;70119;45.638;11.714;2023-12-07T08:42:46;20.30;;;15.93;;
62574;SDS011;70119;45.638;11.714;2023-12-07T08:45:22;23.02;;;18.48;;
62574;SDS011;70119;45.638;11.714;2023-12-07T08:48:06;19.38;;;14.60;;
62574;SDS011;70119;45.638;11.714;2023-12-07T08:50:46;19.63;;;13.00;;
62574;SDS011;70119;45.638;11.714;2023-12-07T08:53:14;22.13;;;14.02;;
62574;SDS011;70119;45.638;11.714;2023-12-07T08:55:44;21.17;;;14.00;;
62574;SDS011;70119;45.638;11.714;2023-12-07T08:58:10;22.52;;;14.57;;
62574;SDS011;70119;45.638;11.714;2023-12-07T09:00:37;22.17;;;14.20;;
62574;SDS011;70119;45.638;11.714;2023-12-07T09:03:04;22.90;;;14.35;;
62574;SDS011;70119;45.638;11.714;2023-12-07T09:05:35;21.48;;;13.70;;
62574;SDS011;70119;45.638;11.714;2023-12-07T09:08:01;20.65;;;13.25;;
62574;SDS011;70119;45.638;11.714;2023-12-07T09:10:29;22.63;;;14.30;;
62574;SDS011;70119;45.638;11.714;2023-12-07T09:12:55;13.35;;;9.30;;
62574;SDS011;70119;45.638;11.714;2023-12-07T09:15:21;13.98;;;9.35;;
62574;SDS011;70119;45.638;11.714;2023-12-07T09:17:47;20.13;;;12.13;;
62574;SDS011;70119;45.638;11.714;2023-12-07T09:20:14;21.52;;;14.93;;
62574;SDS011;70119;45.638;11.714;2023-12-07T09:22:41;17.88;;;13.32;;
62574;SDS011;70119;45.638;11.714;2023-12-07T09:25:08;16.70;;;11.70;;
62574;SDS011;70119;45.638;11.714;2023-12-07T09:27:35;15.30;;;11.32;;
62574;SDS011;70119;45.638;11.714;2023-12-07T09:30:05;15.52;;;11.43;;
62574;SDS011;70119;45.638;11.714;2023-12-07T09:32:32;17.33;;;12.30;;
62574;SDS011;70119;45.638;11.714;2023-12-07T09:35:06;14.70;;;10.05;;
62574;SDS011;70119;45.638;11.714;2023-12-07T09:37:33;13.77;;;9.52;;
62574;SDS011;70119;45.638;11.714;2023-12-07T09:40:00;12.88;;;9.50;;
62574;SDS011;70119;45.638;11.714;2023-12-07T09:42:26;12.75;;;8.90;;
62574;SDS011;70119;45.638;11.714;2023-12-07T09:44:52;13.85;;;9.13;;
62574;SDS011;70119;45.638;11.714;2023-12-07T09:47:19;13.27;;;9.50;;
62574;SDS011;70119;45.638;11.714;2023-12-07T09:49:45;14.07;;;9.70;;
62574;SDS011;70119;45.638;11.714;2023-12-07T09:52:11;14.18;;;10.25;;
62574;SDS011;70119;45.638;11.714;2023-12-07T09:54:42;13.55;;;9.20;;
62574;SDS011;70119;45.638;11.714;2023-12-07T09:57:09;13.32;;;9.25;;
62574;SDS011;70119;45.638;11.714;2023-12-07T09:59:35;13.60;;;9.27;;
62574;SDS011;70119;45.638;11.714;2023-12-07T10:02:01;13.88;;;9.35;;
62574;SDS011;70119;45.638;11.714;2023-12-07T10:04:27;12.82;;;8.65;;
62574;SDS011;70119;45.638;11.714;2023-12-07T10:06:53;12.43;;;9.23;;
62574;SDS011;70119;45.638;11.714;2023-12-07T10:09:22;13.55;;;9.45;;
62574;SDS011;70119;45.638;11.714;2023-12-07T10:11:49;14.32;;;9.75;;
62574;SDS011;70119;45.638;11.714;2023-12-07T10:14:15;14.63;;;9.90;;
62574;SDS011;70119;45.638;11.714;2023-12-07T10:16:53;14.10;;;9.80;;
62574;SDS011;70119;45.638;11.714;2023-12-07T10:19:20;13.25;;;9.60;;
62574;SDS011;70119;45.638;11.714;2023-12-07T10:21:47;14.68;;;9.75;;
62574;SDS011;70119;45.638;11.714;2023-12-07T10:24:24;11.32;;;8.13;;
62574;SDS011;70119;45.638;11.714;2023-12-07T10:26:51;13.98;;;9.30;;
62574;SDS011;70119;45.638;11.714;2023-12-07T10:29:18;11.90;;;8.95;;
62574;SDS011;70119;45.638;11.714;2023-12-07T10:31:46;13.93;;;8.50;;
62574;SDS011;70119;45.638;11.714;2023-12-07T10:34:17;11.07;;;8.07;;
62574;SDS011;70119;45.638;11.714;2023-12-07T10:36:45;12.13;;;8.38;;
62574;SDS011;70119;45.638;11.714;2023-12-07T10:39:14;13.82;;;8.57;;
62574;SDS011;70119;45.638;11.714;2023-12-07T10:41:42;11.55;;;8.48;;
62574;SDS011;70119;45.638;11.714;2023-12-07T10:44:13;11.13;;;7.85;;
62574;SDS011;70119;45.638;11.714;2023-12-07T10:46:42;11.60;;;8.20;;
62574;SDS011;70119;45.638;11.714;2023-12-07T10:49:11;11.80;;;7.90;;
62574;SDS011;70119;45.638;11.714;2023-12-07T10:51:45;11.18;;;7.82;;
62574;SDS011;70119;45.638;11.714;2023-12-07T10:54:24;13.18;;;8.85;;
62574;SDS011;70119;45.638;11.714;2023-12-07T10:56:59;11.93;;;8.20;;
62574;SDS011;70119;45.638;11.714;2023-12-07T10:59:30;10.40;;;7.80;;
62574;SDS011;70119;45.638;11.714;2023-12-07T11:01:57;10.48;;;7.45;;
62574;SDS011;70119;45.638;11.714;2023-12-07T11:04:24;10.70;;;7.55;;
62574;SDS011;70119;45.638;11.714;2023-12-07T11:06:54;10.93;;;7.63;;
62574;SDS011;70119;45.638;11.714;2023-12-07T11:09:32;10.48;;;6.85;;
62574;SDS011;70119;45.638;11.714;2023-12-07T11:12:06;10.75;;;7.13;;
62574;SDS011;70119;45.638;11.714;2023-12-07T11:14:45;9.63;;;7.05;;
62574;SDS011;70119;45.638;11.714;2023-12-07T11:17:14;11.30;;;7.05;;
62574;SDS011;70119;45.638;11.714;2023-12-07T11:19:45;10.25;;;7.03;;
62574;SDS011;70119;45.638;11.714;2023-12-07T11:22:12;11.05;;;7.28;;
62574;SDS011;70119;45.638;11.714;2023-12-07T11:24:51;12.43;;;7.15;;
62574;SDS011;70119;45.638;11.714;2023-12-07T11:27:24;11.07;;;7.80;;
62574;SDS011;70119;45.638;11.714;2023-12-07T11:29:54;9.77;;;6.87;;
62574;SDS011;70119;45.638;11.714;2023-12-07T11:32:20;9.60;;;6.80;;
62574;SDS011;70119;45.638;11.714;2023-12-07T11:34:46;10.68;;;7.05;;
62574;SDS011;70119;45.638;11.714;2023-12-07T11:37:16;10.00;;;6.90;;
62574;SDS011;70119;45.638;11.714;2023-12-07T11:39:43;9.27;;;6.32;;
62574;SDS011;70119;45.638;11.714;2023-12-07T11:44:41;12.00;;;6.93;;
62574;SDS011;70119;45.638;11.714;2023-12-07T11:47:10;9.10;;;6.72;;
62574;SDS011;70119;45.638;11.714;2023-12-07T11:49:45;9.32;;;6.45;;
62574;SDS011;70119;45.638;11.714;2023-12-07T11:52:13;9.48;;;6.78;;
62574;SDS011;70119;45.638;11.714;2023-12-07T11:54:44;10.50;;;7.13;;
62574;SDS011;70119;45.638;11.714;2023-12-07T11:59:48;9.82;;;6.50;;
62574;SDS011;70119;45.638;11.714;2023-12-07T12:02:22;8.93;;;6.28;;
62574;SDS011;70119;45.638;11.714;2023-12-07T12:04:49;9.55;;;6.57;;
62574;SDS011;70119;45.638;11.714;2023-12-07T12:07:16;7.97;;;5.63;;
62574;SDS011;70119;45.638;11.714;2023-12-07T12:09:43;10.68;;;6.43;;
62574;SDS011;70119;45.638;11.714;2023-12-07T12:12:10;10.95;;;7.97;;
62574;SDS011;70119;45.638;11.714;2023-12-07T12:14:40;10.88;;;7.95;;
62574;SDS011;70119;45.638;11.714;2023-12-07T12:17:06;12.07;;;8.95;;
62574;SDS011;70119;45.638;11.714;2023-12-07T12:19:34;12.70;;;8.10;;
62574;SDS011;70119;45.638;11.714;2023-12-07T12:22:02;10.48;;;7.57;;
62574;SDS011;70119;45.638;11.714;2023-12-07T12:24:33;9.80;;;7.40;;
62574;SDS011;70119;45.638;11.714;2023-12-07T12:27:03;10.63;;;7.00;;
62574;SDS011;70119;45.638;11.714;2023-12-07T12:29:32;9.93;;;6.78;;
62574;SDS011;70119;45.638;11.714;2023-12-07T12:31:59;8.95;;;6.10;;
62574;SDS011;70119;45.638;11.714;2023-12-07T12:34:27;11.48;;;7.70;;
62574;SDS011;70119;45.638;11.714;2023-12-07T12:36:57;14.95;;;8.20;;
62574;SDS011;70119;45.638;11.714;2023-12-07T12:39:27;14.35;;;8.07;;
62574;SDS011;70119;45.638;11.714;2023-12-07T12:41:57;13.10;;;7.40;;
62574;SDS011;70119;45.638;11.714;2023-12-07T12:44:25;13.95;;;7.78;;
62574;SDS011;70119;45.638;11.714;2023-12-07T12:46:53;14.55;;;7.20;;
62574;SDS011;70119;45.638;11.714;2023-12-07T12:49:20;15.07;;;7.43;;
62574;SDS011;70119;45.638;11.714;2023-12-07T12:51:50;13.20;;;7.32;;
62574;SDS011;70119;45.638;11.714;2023-12-07T12:54:18;11.38;;;6.80;;
62574;SDS011;70119;45.638;11.714;2023-12-07T12:56:46;11.77;;;7.00;;
62574;SDS011;70119;45.638;11.714;2023-12-07T12:59:12;11.55;;;7.28;;
62574;SDS011;70119;45.638;11.714;2023-12-07T13:01:41;9.90;;;6.30;;
62574;SDS011;70119;45.638;11.714;2023-12-07T13:04:08;11.55;;;7.30;;
62574;SDS011;70119;45.638;11.714;2023-12-07T13:06:39;9.35;;;6.00;;
62574;SDS011;70119;45.638;11.714;2023-12-07T13:09:06;10.23;;;5.93;;
62574;SDS011;70119;45.638;11.714;2023-12-07T13:11:33;11.10;;;5.88;;
62574;SDS011;70119;45.638;11.714;2023-12-07T13:14:00;10.95;;;5.95;;
62574;SDS011;70119;45.638;11.714;2023-12-07T13:16:35;9.82;;;6.03;;
62574;SDS011;70119;45.638;11.714;2023-12-07T13:19:16;8.57;;;6.00;;
62574;SDS011;70119;45.638;11.714;2023-12-07T13:21:45;9.48;;;5.60;;
62574;SDS011;70119;45.638;11.714;2023-12-07T13:24:12;8.52;;;5.82;;
62574;SDS011;70119;45.638;11.714;2023-12-07T13:26:39;10.05;;;5.72;;
62574;SDS011;70119;45.638;11.714;2023-12-07T13:29:05;10.25;;;6.70;;
62574;SDS011;70119;45.638;11.714;2023-12-07T13:31:33;11.15;;;5.78;;
62574;SDS011;70119;45.638;11.714;2023-12-07T13:34:00;8.40;;;5.28;;
62574;SDS011;70119;45.638;11.714;2023-12-07T13:36:27;8.07;;;5.60;;
62574;SDS011;70119;45.638;11.714;2023-12-07T13:38:57;8.43;;;5.72;;
62574;SDS011;70119;45.638;11.714;2023-12-07T13:41:25;7.82;;;5.20;;
62574;SDS011;70119;45.638;11.714;2023-12-07T13:43:56;8.43;;;5.38;;
62574;SDS011;70119;45.638;11.714;2023-12-07T13:46:27;8.32;;;5.25;;
62574;SDS011;70119;45.638;11.714;2023-12-07T13:48:53;8.15;;;5.63;;
62574;SDS011;70119;45.638;11.714;2023-12-07T13:51:19;7.97;;;5.30;;
62574;SDS011;70119;45.638;11.714;2023-12-07T13:53:46;12.70;;;6.75;;
62574;SDS011;70119;45.638;11.714;2023-12-07T13:56:13;9.30;;;5.13;;
62574;SDS011;70119;45.638;11.714;2023-12-07T13:58:40;8.40;;;5.45;;
62574;SDS011;70119;45.638;11.714;2023-12-07T14:01:07;8.00;;;5.00;;
62574;SDS011;70119;45.638;11.714;2023-12-07T14:03:33;8.45;;;5.30;;
62574;SDS011;70119;45.638;11.714;2023-12-07T14:05:59;9.07;;;5.28;;
62574;SDS011;70119;45.638;11.714;2023-12-07T14:08:27;8.30;;;5.20;;
62574;SDS011;70119;45.638;11.714;2023-12-07T14:10:56;7.97;;;5.25;;
62574;SDS011;70119;45.638;11.714;2023-12-07T14:13:23;7.82;;;5.05;;
62574;SDS011;70119;45.638;11.714;2023-12-07T14:15:50;9.32;;;5.40;;
62574;SDS011;70119;45.638;11.714;2023-12-07T14:18:18;8.43;;;5.30;;
62574;SDS011;70119;45.638;11.714;2023-12-07T14:20:46;8.13;;;5.40;;
62574;SDS011;70119;45.638;11.714;2023-12-07T14:23:13;7.65;;;5.20;;
62574;SDS011;70119;45.638;11.714;2023-12-07T14:25:40;9.13;;;5.18;;
62574;SDS011;70119;45.638;11.714;2023-12-07T14:28:11;8.43;;;5.07;;